sensor_id;sensor_type;location;lat;lon;timestamp;pressure;altitude;pressure_sealevel;temperature;humidity
21828;BME280;11076;47.942;11.804;2023-04-02T00:03:08;93558.97;;;6.64;84.96
21828;BME280;11076;47.942;11.804;2023-04-02T00:18:33;93560.81;;;6.64;84.92
21828;BME280;11076;47.942;11.804;2023-04-02T00:23:42;93563.91;;;6.61;84.73
21828;BME280;11076;47.942;11.804;2023-04-02T00:28:47;93570.03;;;6.54;85.51
21828;BME280;11076;47.942;11.804;2023-04-02T00:33:51;93571.69;;;6.55;85.25
21828;BME280;11076;47.942;11.804;2023-04-02T00:38:57;93573.94;;;6.59;85.57
21828;BME280;11076;47.942;11.804;2023-04-02T00:44:00;93564.97;;;6.53;85.55
21828;BME280;11076;47.942;11.804;2023-04-02T00:49:09;93568.84;;;6.50;85.63
21828;BME280;11076;47.942;11.804;2023-04-02T00:54:18;93562.78;;;6.43;86.30
21828;BME280;11076;47.942;11.804;2023-04-02T00:59:29;93554.22;;;6.41;86.40
21828;BME280;11076;47.942;11.804;2023-04-02T01:04:33;93567.50;;;6.41;86.26
21828;BME280;11076;47.942;11.804;2023-04-02T01:21:07;93579.78;;;6.35;87.39
21828;BME280;11076;47.942;11.804;2023-04-02T01:25:52;93573.06;;;6.33;87.44
21828;BME280;11076;47.942;11.804;2023-04-02T01:30:57;93578.78;;;6.30;87.77
21828;BME280;11076;47.942;11.804;2023-04-02T01:36:12;93576.31;;;6.28;87.80
21828;BME280;11076;47.942;11.804;2023-04-02T01:47:01;93589.03;;;6.20;88.74
21828;BME280;11076;47.942;11.804;2023-04-02T01:52:06;93593.13;;;6.15;88.68
21828;BME280;11076;47.942;11.804;2023-04-02T01:57:09;93600.31;;;6.08;89.21
21828;BME280;11076;47.942;11.804;2023-04-02T02:02:13;93597.09;;;6.00;88.87
21828;BME280;11076;47.942;11.804;2023-04-02T02:07:18;93601.78;;;5.91;89.48
21828;BME280;11076;47.942;11.804;2023-04-02T02:12:25;93604.63;;;5.83;89.99
21828;BME280;11076;47.942;11.804;2023-04-02T02:17:30;93607.13;;;5.71;90.52
21828;BME280;11076;47.942;11.804;2023-04-02T02:22:37;93616.13;;;5.63;91.01
21828;BME280;11076;47.942;11.804;2023-04-02T02:27:54;93619.81;;;5.49;91.59
21828;BME280;11076;47.942;11.804;2023-04-02T02:33:24;93633.09;;;5.42;91.84
21828;BME280;11076;47.942;11.804;2023-04-02T02:44:05;93625.97;;;5.29;92.31
21828;BME280;11076;47.942;11.804;2023-04-02T02:49:41;93633.31;;;5.27;92.82
21828;BME280;11076;47.942;11.804;2023-04-02T02:54:47;93632.88;;;5.30;93.57
21828;BME280;11076;47.942;11.804;2023-04-02T02:59:51;93625.53;;;5.32;93.86
21828;BME280;11076;47.942;11.804;2023-04-02T03:04:55;93632.66;;;5.38;93.54
21828;BME280;11076;47.942;11.804;2023-04-02T03:10:08;93637.38;;;5.43;93.51
21828;BME280;11076;47.942;11.804;2023-04-02T03:20:46;93644.88;;;5.53;92.92
21828;BME280;11076;47.942;11.804;2023-04-02T03:25:57;93658.16;;;5.53;92.92
21828;BME280;11076;47.942;11.804;2023-04-02T03:31:05;93651.22;;;5.58;93.06
21828;BME280;11076;47.942;11.804;2023-04-02T03:36:21;93661.00;;;5.65;92.73
21828;BME280;11076;47.942;11.804;2023-04-02T03:41:39;93669.75;;;5.72;92.60
21828;BME280;11076;47.942;11.804;2023-04-02T03:46:54;93667.09;;;5.78;92.29
21828;BME280;11076;47.942;11.804;2023-04-02T03:52:10;93668.31;;;5.76;91.22
21828;BME280;11076;47.942;11.804;2023-04-02T03:57:37;93675.25;;;5.70;91.96
21828;BME280;11076;47.942;11.804;2023-04-02T04:02:50;93681.00;;;5.67;91.23
21828;BME280;11076;47.942;11.804;2023-04-02T04:08:13;93690.16;;;5.65;92.02
21828;BME280;11076;47.942;11.804;2023-04-02T04:13:23;93689.34;;;5.64;91.98
21828;BME280;11076;47.942;11.804;2023-04-02T04:19:02;93707.53;;;5.67;91.45
21828;BME280;11076;47.942;11.804;2023-04-02T04:24:22;93707.53;;;5.67;91.75
21828;BME280;11076;47.942;11.804;2023-04-02T04:29:48;93716.09;;;5.69;91.78
21828;BME280;11076;47.942;11.804;2023-04-02T04:35:21;93710.78;;;5.69;91.93
21828;BME280;11076;47.942;11.804;2023-04-02T04:40:32;93725.47;;;5.65;91.62
21828;BME280;11076;47.942;11.804;2023-04-02T04:45:43;93722.59;;;5.60;91.78
21828;BME280;11076;47.942;11.804;2023-04-02T04:51:18;93728.31;;;5.57;92.13
21828;BME280;11076;47.942;11.804;2023-04-02T04:56:25;93736.69;;;5.54;92.20
21828;BME280;11076;47.942;11.804;2023-04-02T05:06:54;93755.84;;;5.49;92.19
21828;BME280;11076;47.942;11.804;2023-04-02T05:17:21;93764.22;;;5.60;92.43
21828;BME280;11076;47.942;11.804;2023-04-02T05:22:45;93762.78;;;5.70;92.01
21828;BME280;11076;47.942;11.804;2023-04-02T05:33:16;93776.88;;;5.91;91.27
21828;BME280;11076;47.942;11.804;2023-04-02T05:38:24;93776.47;;;5.94;90.73
21828;BME280;11076;47.942;11.804;2023-04-02T05:43:31;93776.88;;;6.04;90.58
21828;BME280;11076;47.942;11.804;2023-04-02T05:48:38;93793.41;;;6.06;90.63
21828;BME280;11076;47.942;11.804;2023-04-02T05:54:00;93797.09;;;6.12;89.56
21828;BME280;11076;47.942;11.804;2023-04-02T05:59:18;93803.22;;;6.19;89.70
21828;BME280;11076;47.942;11.804;2023-04-02T06:09:59;93808.09;;;6.35;88.89
21828;BME280;11076;47.942;11.804;2023-04-02T06:15:14;93813.16;;;6.50;88.24
21828;BME280;11076;47.942;11.804;2023-04-02T06:20:19;93820.13;;;6.51;88.21
21828;BME280;11076;47.942;11.804;2023-04-02T06:25:26;93813.56;;;6.61;87.34
21828;BME280;11076;47.942;11.804;2023-04-02T06:30:33;93825.41;;;6.65;86.77
21828;BME280;11076;47.942;11.804;2023-04-02T06:35:40;93824.38;;;6.66;86.29
21828;BME280;11076;47.942;11.804;2023-04-02T06:40:52;93843.94;;;6.78;86.40
21828;BME280;11076;47.942;11.804;2023-04-02T06:46:24;93849.22;;;6.91;85.96
21828;BME280;11076;47.942;11.804;2023-04-02T06:51:37;93844.72;;;6.99;85.29
21828;BME280;11076;47.942;11.804;2023-04-02T06:56:46;93860.47;;;6.93;84.01
21828;BME280;11076;47.942;11.804;2023-04-02T07:02:00;93874.69;;;7.19;84.68
21828;BME280;11076;47.942;11.804;2023-04-02T07:07:05;93870.94;;;7.33;84.03
21828;BME280;11076;47.942;11.804;2023-04-02T07:12:12;93877.84;;;7.48;82.09
21828;BME280;11076;47.942;11.804;2023-04-02T07:17:17;93872.91;;;7.58;81.59
21828;BME280;11076;47.942;11.804;2023-04-02T07:22:20;93883.88;;;7.68;80.80
21828;BME280;11076;47.942;11.804;2023-04-02T07:27:30;93892.88;;;7.74;80.14
21828;BME280;11076;47.942;11.804;2023-04-02T07:32:32;93894.72;;;8.05;80.18
21828;BME280;11076;47.942;11.804;2023-04-02T07:37:36;93894.44;;;8.13;77.28
21828;BME280;11076;47.942;11.804;2023-04-02T07:42:38;93897.56;;;8.10;77.63
21828;BME280;11076;47.942;11.804;2023-04-02T07:47:41;93902.59;;;8.50;78.14
21828;BME280;11076;47.942;11.804;2023-04-02T07:52:43;93908.75;;;8.51;77.04
21828;BME280;11076;47.942;11.804;2023-04-02T07:57:55;93920.31;;;8.88;75.37
21828;BME280;11076;47.942;11.804;2023-04-02T08:02:57;93925.66;;;9.07;74.68
21828;BME280;11076;47.942;11.804;2023-04-02T08:08:00;93920.41;;;9.19;72.81
21828;BME280;11076;47.942;11.804;2023-04-02T08:13:02;93935.47;;;9.31;72.19
21828;BME280;11076;47.942;11.804;2023-04-02T08:18:04;93935.00;;;9.71;73.17
21828;BME280;11076;47.942;11.804;2023-04-02T08:23:14;93945.88;;;9.88;70.48
21828;BME280;11076;47.942;11.804;2023-04-02T08:28:20;93945.97;;;9.82;70.68
21828;BME280;11076;47.942;11.804;2023-04-02T08:33:22;93951.94;;;10.26;70.62
21828;BME280;11076;47.942;11.804;2023-04-02T08:38:25;93950.88;;;10.45;67.91
21828;BME280;11076;47.942;11.804;2023-04-02T08:48:32;93954.09;;;10.78;68.32
21828;BME280;11076;47.942;11.804;2023-04-02T08:53:36;93955.50;;;10.38;67.47
21828;BME280;11076;47.942;11.804;2023-04-02T09:03:46;93963.13;;;10.23;67.12
21828;BME280;11076;47.942;11.804;2023-04-02T09:08:52;93971.72;;;10.55;66.51
21828;BME280;11076;47.942;11.804;2023-04-02T09:13:56;93972.53;;;10.55;65.32
21828;BME280;11076;47.942;11.804;2023-04-02T09:18:59;93968.97;;;10.73;64.47
21828;BME280;11076;47.942;11.804;2023-04-02T09:24:02;93977.84;;;11.09;64.27
21828;BME280;11076;47.942;11.804;2023-04-02T09:34:30;93993.97;;;10.79;64.77
21828;BME280;11076;47.942;11.804;2023-04-02T09:39:33;93990.66;;;10.53;65.19
21828;BME280;11076;47.942;11.804;2023-04-02T09:44:39;94001.81;;;10.62;66.44
21828;BME280;11076;47.942;11.804;2023-04-02T09:49:42;93993.31;;;11.19;65.92
21828;BME280;11076;47.942;11.804;2023-04-02T09:54:46;93996.69;;;11.50;63.67
21828;BME280;11076;47.942;11.804;2023-04-02T10:05:22;94015.09;;;11.23;64.56
21828;BME280;11076;47.942;11.804;2023-04-02T10:10:41;94013.56;;;11.39;63.79
21828;BME280;11076;47.942;11.804;2023-04-02T10:20:54;94011.59;;;11.10;65.90
21828;BME280;11076;47.942;11.804;2023-04-02T10:31:21;94022.91;;;10.70;68.12
21828;BME280;11076;47.942;11.804;2023-04-02T11:02:31;94056.72;;;10.65;72.13
21828;BME280;11076;47.942;11.804;2023-04-02T11:07:45;94050.44;;;11.25;70.59
21828;BME280;11076;47.942;11.804;2023-04-02T11:12:55;94035.41;;;12.06;68.03
21828;BME280;11076;47.942;11.804;2023-04-02T11:17:59;94038.03;;;12.59;64.06
21828;BME280;11076;47.942;11.804;2023-04-02T11:23:09;94034.78;;;13.31;62.81
21828;BME280;11076;47.942;11.804;2023-04-02T11:28:26;94034.75;;;13.48;60.60
21828;BME280;11076;47.942;11.804;2023-04-02T11:43:47;94044.28;;;12.47;61.45
21828;BME280;11076;47.942;11.804;2023-04-02T11:48:50;94040.78;;;13.55;59.40
21828;BME280;11076;47.942;11.804;2023-04-02T11:53:53;94047.38;;;14.03;57.82
21828;BME280;11076;47.942;11.804;2023-04-02T12:09:21;94053.06;;;13.68;56.73
21828;BME280;11076;47.942;11.804;2023-04-02T12:19:36;94065.81;;;12.24;59.48
21828;BME280;11076;47.942;11.804;2023-04-02T12:24:39;94068.88;;;12.44;60.02
21828;BME280;11076;47.942;11.804;2023-04-02T12:29:42;94074.78;;;11.82;61.36
21828;BME280;11076;47.942;11.804;2023-04-02T12:34:44;94087.38;;;10.92;68.13
21828;BME280;11076;47.942;11.804;2023-04-02T12:40:03;94093.50;;;10.51;73.44
21828;BME280;11076;47.942;11.804;2023-04-02T12:45:27;94095.19;;;10.45;75.83
21828;BME280;11076;47.942;11.804;2023-04-02T12:50:32;94086.13;;;11.07;73.16
21828;BME280;11076;47.942;11.804;2023-04-02T12:55:35;94085.72;;;11.57;72.86
21828;BME280;11076;47.942;11.804;2023-04-02T13:00:37;94079.22;;;11.77;71.84
21828;BME280;11076;47.942;11.804;2023-04-02T13:05:44;94080.84;;;12.01;66.31
21828;BME280;11076;47.942;11.804;2023-04-02T13:11:00;94078.91;;;12.37;63.22
21828;BME280;11076;47.942;11.804;2023-04-02T13:26:23;94098.31;;;11.57;68.92
21828;BME280;11076;47.942;11.804;2023-04-02T13:31:31;94124.19;;;9.86;79.81
21828;BME280;11076;47.942;11.804;2023-04-02T13:36:34;94126.34;;;9.52;83.66
21828;BME280;11076;47.942;11.804;2023-04-02T13:41:43;94134.69;;;9.38;87.78
21828;BME280;11076;47.942;11.804;2023-04-02T13:46:46;94131.97;;;9.12;91.25
21828;BME280;11076;47.942;11.804;2023-04-02T13:51:51;94138.50;;;8.91;94.35
21828;BME280;11076;47.942;11.804;2023-04-02T13:56:55;94142.84;;;8.79;96.55
21828;BME280;11076;47.942;11.804;2023-04-02T14:02:04;94142.97;;;8.91;97.00
21828;BME280;11076;47.942;11.804;2023-04-02T14:07:39;94145.88;;;8.89;95.71
21828;BME280;11076;47.942;11.804;2023-04-02T14:28:34;94153.97;;;9.40;95.50
21828;BME280;11076;47.942;11.804;2023-04-02T14:40:13;94158.66;;;9.69;94.38
21828;BME280;11076;47.942;11.804;2023-04-02T14:44:52;94156.56;;;9.71;94.73
21828;BME280;11076;47.942;11.804;2023-04-02T14:50:06;94158.66;;;9.69;95.68
21828;BME280;11076;47.942;11.804;2023-04-02T14:55:25;94165.19;;;9.92;95.14
21828;BME280;11076;47.942;11.804;2023-04-02T15:00:45;94166.25;;;9.66;96.21
21828;BME280;11076;47.942;11.804;2023-04-02T15:05:59;94182.78;;;9.24;97.54
21828;BME280;11076;47.942;11.804;2023-04-02T15:11:25;94173.31;;;9.28;97.91
21828;BME280;11076;47.942;11.804;2023-04-02T15:16:28;94200.69;;;8.00;99.83
21828;BME280;11076;47.942;11.804;2023-04-02T15:21:45;94207.88;;;7.53;100.00
21828;BME280;11076;47.942;11.804;2023-04-02T15:43:13;94219.97;;;7.42;100.00
21828;BME280;11076;47.942;11.804;2023-04-02T15:53:48;94219.13;;;7.95;100.00
21828;BME280;11076;47.942;11.804;2023-04-02T16:04:44;94241.66;;;7.72;100.00
21828;BME280;11076;47.942;11.804;2023-04-02T16:10:07;94250.84;;;7.83;100.00
21828;BME280;11076;47.942;11.804;2023-04-02T16:15:20;94272.72;;;7.52;100.00
21828;BME280;11076;47.942;11.804;2023-04-02T16:20:46;94267.38;;;7.25;100.00
21828;BME280;11076;47.942;11.804;2023-04-02T16:25:58;94273.13;;;7.35;100.00
21828;BME280;11076;47.942;11.804;2023-04-02T16:31:33;94287.84;;;7.31;100.00
21828;BME280;11076;47.942;11.804;2023-04-02T16:37:03;94286.41;;;7.35;100.00
21828;BME280;11076;47.942;11.804;2023-04-02T16:42:50;94299.91;;;7.27;100.00
21828;BME280;11076;47.942;11.804;2023-04-02T17:09:27;94332.44;;;6.74;100.00
21828;BME280;11076;47.942;11.804;2023-04-02T17:19:49;94354.66;;;6.38;100.00
21828;BME280;11076;47.942;11.804;2023-04-02T17:46:53;94396.28;;;5.30;100.00
21828;BME280;11076;47.942;11.804;2023-04-02T18:18:16;94454.03;;;4.61;100.00
21828;BME280;11076;47.942;11.804;2023-04-02T18:51:02;94525.25;;;4.09;100.00
21828;BME280;11076;47.942;11.804;2023-04-02T18:56:11;94528.19;;;3.91;100.00
21828;BME280;11076;47.942;11.804;2023-04-02T19:01:20;94539.56;;;3.92;100.00
21828;BME280;11076;47.942;11.804;2023-04-02T19:06:28;94548.47;;;3.68;100.00
21828;BME280;11076;47.942;11.804;2023-04-02T19:11:36;94550.34;;;3.59;100.00
21828;BME280;11076;47.942;11.804;2023-04-02T19:26:57;94574.84;;;3.45;100.00
21828;BME280;11076;47.942;11.804;2023-04-02T19:32:29;94577.03;;;3.33;100.00
21828;BME280;11076;47.942;11.804;2023-04-02T19:37:42;94597.03;;;3.19;100.00
21828;BME280;11076;47.942;11.804;2023-04-02T19:42:47;94599.38;;;2.97;100.00
21828;BME280;11076;47.942;11.804;2023-04-02T19:47:50;94605.16;;;2.76;100.00
21828;BME280;11076;47.942;11.804;2023-04-02T19:52:52;94613.75;;;2.70;100.00
21828;BME280;11076;47.942;11.804;2023-04-02T19:57:55;94622.63;;;2.45;100.00
21828;BME280;11076;47.942;11.804;2023-04-02T20:03:02;94637.59;;;2.11;100.00
21828;BME280;11076;47.942;11.804;2023-04-02T20:08:04;94643.03;;;2.10;100.00
21828;BME280;11076;47.942;11.804;2023-04-02T20:13:07;94639.56;;;2.01;100.00
21828;BME280;11076;47.942;11.804;2023-04-02T20:18:10;94639.16;;;1.88;100.00
21828;BME280;11076;47.942;11.804;2023-04-02T20:23:12;94651.03;;;1.92;100.00
21828;BME280;11076;47.942;11.804;2023-04-02T20:28:15;94665.28;;;1.73;100.00
21828;BME280;11076;47.942;11.804;2023-04-02T20:33:19;94677.25;;;1.59;100.00
21828;BME280;11076;47.942;11.804;2023-04-02T20:38:22;94677.88;;;1.53;100.00
21828;BME280;11076;47.942;11.804;2023-04-02T20:43:24;94688.41;;;1.53;100.00
21828;BME280;11076;47.942;11.804;2023-04-02T20:48:27;94692.16;;;1.42;100.00
21828;BME280;11076;47.942;11.804;2023-04-02T20:53:34;94703.31;;;1.62;100.00
21828;BME280;11076;47.942;11.804;2023-04-02T20:58:37;94706.03;;;1.52;100.00
21828;BME280;11076;47.942;11.804;2023-04-02T21:03:40;94714.41;;;1.48;100.00
21828;BME280;11076;47.942;11.804;2023-04-02T21:08:43;94728.50;;;1.38;100.00
21828;BME280;11076;47.942;11.804;2023-04-02T21:13:45;94722.22;;;1.31;100.00
21828;BME280;11076;47.942;11.804;2023-04-02T21:18:50;94721.47;;;1.21;100.00
21828;BME280;11076;47.942;11.804;2023-04-02T21:23:55;94729.69;;;1.18;100.00
21828;BME280;11076;47.942;11.804;2023-04-02T21:28:58;94735.63;;;1.20;100.00
21828;BME280;11076;47.942;11.804;2023-04-02T21:34:02;94740.09;;;1.02;100.00
21828;BME280;11076;47.942;11.804;2023-04-02T21:39:08;94742.19;;;0.98;100.00
21828;BME280;11076;47.942;11.804;2023-04-02T21:44:14;94739.50;;;1.08;100.00
21828;BME280;11076;47.942;11.804;2023-04-02T21:49:18;94742.78;;;1.10;100.00
21828;BME280;11076;47.942;11.804;2023-04-02T21:54:22;94747.38;;;1.08;100.00
21828;BME280;11076;47.942;11.804;2023-04-02T21:59:25;94754.91;;;1.03;100.00
21828;BME280;11076;47.942;11.804;2023-04-02T22:04:27;94755.03;;;1.19;100.00
21828;BME280;11076;47.942;11.804;2023-04-02T22:09:31;94762.56;;;1.14;100.00
21828;BME280;11076;47.942;11.804;2023-04-02T22:14:33;94764.53;;;1.12;100.00
21828;BME280;11076;47.942;11.804;2023-04-02T22:19:36;94772.72;;;1.09;100.00
21828;BME280;11076;47.942;11.804;2023-04-02T22:24:38;94774.84;;;1.05;100.00
21828;BME280;11076;47.942;11.804;2023-04-02T22:29:40;94772.06;;;1.07;100.00
21828;BME280;11076;47.942;11.804;2023-04-02T22:34:43;94778.66;;;1.11;100.00
21828;BME280;11076;47.942;11.804;2023-04-02T22:39:46;94781.38;;;1.19;100.00
21828;BME280;11076;47.942;11.804;2023-04-02T22:44:49;94782.44;;;1.26;100.00
21828;BME280;11076;47.942;11.804;2023-04-02T22:49:51;94790.63;;;1.23;100.00
21828;BME280;11076;47.942;11.804;2023-04-02T22:54:53;94798.53;;;1.23;100.00
21828;BME280;11076;47.942;11.804;2023-04-02T22:59:56;94793.56;;;1.20;100.00
21828;BME280;11076;47.942;11.804;2023-04-02T23:04:58;94783.03;;;1.20;100.00
21828;BME280;11076;47.942;11.804;2023-04-02T23:10:00;94794.09;;;1.24;100.00
21828;BME280;11076;47.942;11.804;2023-04-02T23:15:04;94791.63;;;1.22;100.00
21828;BME280;11076;47.942;11.804;2023-04-02T23:20:07;94791.28;;;1.25;100.00
21828;BME280;11076;47.942;11.804;2023-04-02T23:25:10;94790.94;;;1.20;100.00
21828;BME280;11076;47.942;11.804;2023-04-02T23:30:13;94798.53;;;1.23;100.00
21828;BME280;11076;47.942;11.804;2023-04-02T23:35:15;94803.03;;;1.49;100.00
21828;BME280;11076;47.942;11.804;2023-04-02T23:40:17;94800.16;;;1.60;100.00
21828;BME280;11076;47.942;11.804;2023-04-02T23:45:20;94795.25;;;1.47;100.00
21828;BME280;11076;47.942;11.804;2023-04-02T23:50:22;94797.06;;;1.47;100.00
21828;BME280;11076;47.942;11.804;2023-04-02T23:55:24;94792.88;;;1.36;100.00
